Aeroporto :
LOGIN :

Iscrizione | Disclaimer

   EN    FR    IT 

 










Sommario :    VFR   VFR Marginale   IFR   IFR Intensivo   IFR Molto Intensivo
Visibilità : 
Base nubi : 
>= 8 km
>= 3000ft
5 / 8 km
1000 / 3000 ft
1500m / 5 km
500 / 1000 ft
800 / 1500m
200 / 500 ft
< 800m
< 200 ft
Simboli :   Temporali  Nebbia  Neve Forte  Precipitazioni Forti  Vento > 20 kt
SIGMETs :   Varie  Temporali  Ghiacco  Turbolenza  Onda orograficha  Ceneri Vulcaniche






- Altitudine del aeroporto : 0 ft


ETEB - Ansbach Army Heliport

ULTIMO METAR :
  • 110356Z AUTO 15005KT 9999 OVC170 M02/M02 A3002 RMK AO2 SLP208 T10191020 FZRANO $

METARs OBSOLETI :
  • 110256Z AUTO 16004KT 9999 OVC160 M01/M01 A3006 RMK AO2 SLP219 T10141015 57025 FZRANO $
  • 110156Z AUTO 16007KT 9999 OVC160 M01/M01 A3008 RMK AO2 SLP224 T10141015 FZRANO $

TAF TAF ETEB
Valido dal 10 a 14 ore il 11 a 20 ore UTC


101402Z 1014/1120 24009KT 9999 FEW040 QNH3028INS
BECMG 1019/1020 17006KT 9999 SCT030 QNH3020INS
BECMG 1102/1103 17009KT 9999 BKN050 QNH3004INS
BECMG 1115/1116 19006KT 8000 -RASN BKN010 620108 QNH2980INS TX04/1014Z TNM02/1104Z



MetMap, La meteo Aeronautica in un colpo d'occhio ! - Copyright ORBIFLY Dicembre 2007 - Disclaimer

ORBIFLY MET'MAP TEAM :

Programmazione e sviluppo : Alexandra Zaïnal
Concezione : Baudouin d'Aumeries
Aiuto per la programmazione : Marc-Olivier Méhu
Supporto tecnico e logistico : Manuel Goepfert
Aiuto per la traduzione : Arnaldo La Scala

Contatto : metmap@orbifly.com




FONTI E CREDITI :

   NOAA